Time;durP1;ratioP1;P1;durP2;ratioP2;P2;SDS_P1;SDS_P2;PMS_P1;PMS_P2;Temp;Humidity;BMP_temperature;BMP_pressure;BME280_temperature;BME280_humidity;BME280_pressure;Samples;Min_cycle;Max_cycle;Signal;HPM_P1;HPM_P2
2021/07/03 00:01:14;;;;;;;18.45;12.65;;;18.70;99.90;;;;;;5073693;28;20035;-58
2021/07/03 00:03:39;;;;;;;17.50;11.48;;;18.70;99.90;;;;;;5072520;28;20536;-57
2021/07/03 00:06:05;;;;;;;17.02;12.18;;;18.70;99.90;;;;;;5072667;28;20041;-58
2021/07/03 00:08:31;;;;;;;22.25;13.85;;;18.70;99.90;;;;;;5071736;28;20028;-57
2021/07/03 00:10:58;;;;;;;19.45;12.65;;;18.70;99.90;;;;;;5073437;28;20017;-55
2021/07/03 00:13:24;;;;;;;17.02;12.20;;;18.70;99.90;;;;;;5072738;28;20551;-58
2021/07/03 00:15:50;;;;;;;21.77;12.30;;;18.60;99.90;;;;;;5073147;28;20502;-57
2021/07/03 00:18:15;;;;;;;22.38;13.05;;;18.60;99.90;;;;;;5072684;28;20063;-57
2021/07/03 00:20:41;;;;;;;16.48;12.15;;;18.60;99.90;;;;;;5073197;28;20412;-59
2021/07/03 00:23:08;;;;;;;16.20;12.35;;;18.60;99.90;;;;;;5072181;28;20028;-56
2021/07/03 00:25:34;;;;;;;22.90;13.00;;;18.50;99.90;;;;;;5072949;28;20032;-59
2021/07/03 00:28:00;;;;;;;17.55;13.10;;;18.60;99.90;;;;;;5072830;28;20128;-58
2021/07/03 00:30:25;;;;;;;24.90;13.77;;;18.60;99.90;;;;;;5072726;28;20111;-59
2021/07/03 00:32:51;;;;;;;19.38;13.73;;;18.60;99.90;;;;;;5073051;28;20032;-59
2021/07/03 00:35:17;;;;;;;21.40;13.57;;;18.60;99.90;;;;;;5070520;28;20044;-59
2021/07/03 00:37:42;;;;;;;20.48;13.38;;;18.60;99.90;;;;;;5073126;28;20081;-59
2021/07/03 00:40:09;;;;;;;22.60;13.50;;;18.60;99.90;;;;;;5071979;28;20025;-58
2021/07/03 00:42:35;;;;;;;23.70;13.77;;;18.60;99.90;;;;;;5073266;28;20036;-59
2021/07/03 00:45:01;;;;;;;22.52;15.38;;;18.60;99.90;;;;;;5072295;28;20037;-57
2021/07/03 00:47:27;;;;;;;25.45;15.85;;;18.70;99.90;;;;;;5073027;28;20054;-58
2021/07/03 00:49:53;;;;;;;22.15;14.88;;;18.70;99.90;;;;;;5086387;28;20113;-57
2021/07/03 00:52:19;;;;;;;20.02;15.02;;;18.70;99.90;;;;;;5072680;28;20401;-58
2021/07/03 00:54:46;;;;;;;24.90;17.13;;;18.60;99.90;;;;;;5072032;28;20032;-59
2021/07/03 00:57:12;;;;;;;24.10;15.75;;;18.50;99.90;;;;;;5072509;28;20115;-58
2021/07/03 00:59:40;;;;;;;24.40;17.40;;;18.50;99.90;;;;;;5071651;28;20107;-59
2021/07/03 01:02:09;;;;;;;24.65;17.45;;;18.50;99.90;;;;;;5071123;28;20495;-58
2021/07/03 01:04:36;;;;;;;32.22;17.92;;;18.40;99.90;;;;;;5080682;28;20052;-59
2021/07/03 01:07:03;;;;;;;29.15;17.90;;;18.40;99.90;;;;;;5077238;28;20501;-57
2021/07/03 01:09:29;;;;;;;26.63;18.05;;;18.40;99.90;;;;;;5071657;28;20025;-59
2021/07/03 01:11:55;;;;;;;27.90;18.25;;;18.40;99.90;;;;;;5072547;28;20497;-59
2021/07/03 01:14:21;;;;;;;29.75;18.67;;;18.40;99.90;;;;;;5071662;28;20375;-58
2021/07/03 01:16:48;;;;;;;26.10;17.70;;;18.40;99.90;;;;;;5071951;28;20029;-57
2021/07/03 01:19:15;;;;;;;28.77;18.65;;;18.40;99.90;;;;;;5070538;28;20071;-57
2021/07/03 01:21:48;;;;;;;25.42;18.10;;;18.30;99.90;;;;;;5071635;28;20020;-58
2021/07/03 01:24:13;;;;;;;24.00;17.95;;;18.30;99.90;;;;;;5071770;28;20074;-57
2021/07/03 01:26:44;;;;;;;25.58;18.27;;;18.30;99.90;;;;;;5071958;28;20400;-57
2021/07/03 01:29:10;;;;;;;29.33;18.05;;;18.30;99.90;;;;;;5071074;28;20044;-57
2021/07/03 01:31:43;;;;;;;27.33;17.90;;;18.20;99.90;;;;;;5086142;28;20032;-58
2021/07/03 01:34:09;;;;;;;27.70;18.05;;;18.30;99.90;;;;;;5071013;28;20040;-59
2021/07/03 01:36:36;;;;;;;25.85;17.95;;;18.20;99.90;;;;;;5071483;28;20082;-59
2021/07/03 01:39:06;;;;;;;26.42;18.73;;;18.30;99.90;;;;;;5070679;28;20021;-57
2021/07/03 01:41:32;;;;;;;26.55;17.63;;;18.20;99.90;;;;;;5071584;28;20501;-58
2021/07/03 01:43:58;;;;;;;23.70;16.92;;;18.20;99.90;;;;;;5071331;28;20017;-57
2021/07/03 01:46:23;;;;;;;26.75;16.02;;;18.20;99.90;;;;;;5071716;28;20028;-58
2021/07/03 01:48:49;;;;;;;23.50;16.02;;;18.20;99.90;;;;;;5070536;28;20536;-58
2021/07/03 01:51:16;;;;;;;23.92;15.98;;;18.10;99.90;;;;;;5071480;28;20036;-58
2021/07/03 01:53:42;;;;;;;27.73;15.75;;;18.10;99.90;;;;;;5070652;28;20106;-58
2021/07/03 01:56:08;;;;;;;20.83;14.55;;;18.20;99.90;;;;;;5071631;28;20466;-58
2021/07/03 01:58:35;;;;;;;24.48;15.40;;;18.20;99.90;;;;;;5071351;28;20032;-58
2021/07/03 02:01:03;;;;;;;22.75;15.27;;;18.20;99.90;;;;;;5071019;28;20044;-59
2021/07/03 02:03:29;;;;;;;20.52;14.82;;;18.20;99.90;;;;;;5071198;28;20060;-58
2021/07/03 02:05:55;;;;;;;23.17;14.85;;;18.10;99.90;;;;;;5070436;28;20060;-57
2021/07/03 02:08:22;;;;;;;21.77;14.90;;;18.20;99.90;;;;;;5071333;28;20387;-57
2021/07/03 02:10:48;;;;;;;23.48;14.82;;;18.20;99.90;;;;;;5070369;28;20356;-59
2021/07/03 02:13:14;;;;;;;19.55;14.02;;;18.10;99.90;;;;;;5071224;28;20086;-57
2021/07/03 02:15:40;;;;;;;22.85;14.35;;;18.10;99.90;;;;;;5084560;28;20435;-58
2021/07/03 02:18:06;;;;;;;17.92;13.18;;;18.00;99.90;;;;;;5071114;28;20119;-58
2021/07/03 02:20:32;;;;;;;18.75;14.13;;;18.10;99.90;;;;;;5070292;28;20021;-57
2021/07/03 02:22:59;;;;;;;21.08;13.93;;;18.10;99.90;;;;;;5070866;28;20028;-58
2021/07/03 02:25:26;;;;;;;21.88;13.85;;;18.10;99.90;;;;;;5070442;28;20044;-57
2021/07/03 02:27:52;;;;;;;21.70;14.68;;;18.10;99.90;;;;;;5070800;28;20056;-58
2021/07/03 02:30:19;;;;;;;22.17;13.98;;;18.00;99.90;;;;;;5070208;28;20036;-57
2021/07/03 02:32:45;;;;;;;21.38;15.55;;;18.00;99.90;;;;;;5070988;28;20154;-58
2021/07/03 02:35:13;;;;;;;21.83;14.90;;;17.90;99.90;;;;;;5069825;28;20035;-57
2021/07/03 02:37:39;;;;;;;22.98;16.20;;;17.90;99.90;;;;;;5071203;28;20033;-58
2021/07/03 02:40:06;;;;;;;24.05;16.23;;;17.90;99.90;;;;;;5070089;28;20040;-57
2021/07/03 02:42:32;;;;;;;22.40;17.05;;;17.80;99.90;;;;;;5069362;28;20695;-59
2021/07/03 02:44:58;;;;;;;25.08;16.80;;;17.80;99.90;;;;;;5070082;28;20032;-58
2021/07/03 02:47:24;;;;;;;25.05;17.35;;;17.70;99.90;;;;;;5070089;28;20108;-60
2021/07/03 02:49:49;;;;;;;24.98;17.05;;;17.70;99.90;;;;;;5070181;28;20033;-57
2021/07/03 02:52:15;;;;;;;30.27;17.48;;;17.60;99.90;;;;;;5072316;28;20033;-58
2021/07/03 02:54:41;;;;;;;27.15;16.75;;;17.60;99.90;;;;;;5082584;28;20419;-57
2021/07/03 02:57:07;;;;;;;24.77;16.98;;;17.60;99.90;;;;;;5070785;28;20052;-58
2021/07/03 02:59:33;;;;;;;23.70;16.60;;;17.50;99.90;;;;;;5069694;28;20111;-57
2021/07/03 03:01:59;;;;;;;24.35;16.48;;;17.40;99.90;;;;;;5070470;28;20036;-59
2021/07/03 03:04:25;;;;;;;21.83;16.23;;;17.50;99.90;;;;;;5069678;28;20032;-59
2021/07/03 03:06:51;;;;;;;23.23;16.02;;;17.50;99.90;;;;;;5071099;28;20113;-57
2021/07/03 03:09:16;;;;;;;27.42;15.30;;;17.50;99.90;;;;;;5069930;28;20029;-58
2021/07/03 03:11:42;;;;;;;20.38;15.48;;;17.50;99.90;;;;;;5070818;28;20025;-57
2021/07/03 03:14:08;;;;;;;26.90;16.13;;;17.50;99.90;;;;;;5069831;28;20068;-58
2021/07/03 03:16:34;;;;;;;22.92;16.15;;;17.50;99.90;;;;;;5073284;28;20035;-59
2021/07/03 03:19:00;;;;;;;24.20;16.58;;;17.50;99.90;;;;;;5070417;28;20097;-58
2021/07/03 03:21:26;;;;;;;24.10;15.82;;;17.40;99.90;;;;;;5069619;28;20032;-59
2021/07/03 03:23:52;;;;;;;22.38;15.30;;;17.40;99.90;;;;;;5070588;28;20025;-59
2021/07/03 03:26:17;;;;;;;21.58;15.55;;;17.40;99.90;;;;;;5069632;28;20062;-59
2021/07/03 03:28:43;;;;;;;22.23;15.30;;;17.40;99.90;;;;;;5070566;28;20529;-60
2021/07/03 03:31:09;;;;;;;22.85;16.10;;;17.40;99.90;;;;;;5069494;28;20036;-59
2021/07/03 03:33:35;;;;;;;26.35;16.10;;;17.40;99.90;;;;;;5070056;28;20039;-57
2021/07/03 03:36:01;;;;;;;22.23;16.80;;;17.40;99.90;;;;;;5069558;28;20033;-57
2021/07/03 03:38:27;;;;;;;26.17;18.27;;;17.50;99.90;;;;;;5070232;28;20356;-58
2021/07/03 03:40:52;;;;;;;27.67;17.35;;;17.40;99.90;;;;;;5069791;28;20351;-59
2021/07/03 03:43:19;;;;;;;31.92;18.50;;;17.40;99.90;;;;;;5073837;28;20036;-58
2021/07/03 03:45:45;;;;;;;27.52;18.73;;;17.30;99.90;;;;;;5073150;28;20025;-59
2021/07/03 03:48:12;;;;;;;29.02;20.20;;;17.30;99.90;;;;;;5086084;28;20085;-58
2021/07/03 03:50:38;;;;;;;29.10;20.48;;;17.30;99.90;;;;;;5073359;28;20081;-59
2021/07/03 03:53:04;;;;;;;29.33;20.67;;;17.30;99.90;;;;;;5073961;28;20055;-59
2021/07/03 03:55:30;;;;;;;33.58;22.85;;;17.20;99.90;;;;;;5072745;28;20107;-58
2021/07/03 03:57:56;;;;;;;40.55;25.08;;;17.20;99.90;;;;;;5073854;28;20530;-60
2021/07/03 04:00:22;;;;;;;36.83;25.33;;;17.20;99.90;;;;;;5072761;28;20029;-58
2021/07/03 04:02:48;;;;;;;40.42;26.35;;;17.20;99.90;;;;;;5079954;28;20099;-59
2021/07/03 04:05:14;;;;;;;40.88;27.05;;;17.20;99.90;;;;;;5080250;28;20120;-58
2021/07/03 04:07:42;;;;;;;45.90;28.15;;;17.20;99.90;;;;;;5073577;28;20833;-57
2021/07/03 04:10:10;;;;;;;45.38;28.67;;;17.20;99.90;;;;;;5072584;28;20723;-57
2021/07/03 04:12:36;;;;;;;46.22;28.88;;;17.30;99.90;;;;;;5073273;28;20028;-59
2021/07/03 04:15:03;;;;;;;44.13;28.38;;;17.20;99.90;;;;;;5072710;28;20470;-59
2021/07/03 04:17:29;;;;;;;49.35;28.70;;;17.20;99.90;;;;;;5073208;28;20543;-58
2021/07/03 04:19:55;;;;;;;44.70;28.20;;;17.20;99.90;;;;;;5077701;28;20029;-59
2021/07/03 04:22:21;;;;;;;46.78;30.17;;;17.20;99.90;;;;;;5073293;28;20036;-56
2021/07/03 04:24:47;;;;;;;44.70;29.42;;;17.20;99.90;;;;;;5072465;28;20020;-58
2021/07/03 04:27:13;;;;;;;46.55;30.10;;;17.20;99.90;;;;;;5073461;28;20445;-57
2021/07/03 04:29:39;;;;;;;49.22;30.45;;;17.20;99.90;;;;;;5072255;28;20494;-58
2021/07/03 04:32:05;;;;;;;45.33;29.88;;;17.20;99.90;;;;;;5072930;28;20036;-58
2021/07/03 04:34:31;;;;;;;48.45;30.52;;;17.20;99.90;;;;;;5072835;28;20053;-59
2021/07/03 04:36:58;;;;;;;49.45;29.92;;;17.10;99.90;;;;;;5072354;28;20538;-58
2021/07/03 04:39:24;;;;;;;47.80;29.23;;;17.20;99.90;;;;;;5073207;28;20029;-56
2021/07/03 04:41:50;;;;;;;46.40;27.50;;;17.20;99.90;;;;;;5071835;28;20470;-57
2021/07/03 04:44:17;;;;;;;45.08;27.80;;;17.10;99.90;;;;;;5073070;28;20466;-58
2021/07/03 04:46:44;;;;;;;46.53;28.40;;;17.10;99.90;;;;;;5072191;28;20466;-57
2021/07/03 04:49:10;;;;;;;49.83;27.85;;;17.00;99.90;;;;;;5072366;28;20033;-56
2021/07/03 04:51:36;;;;;;;41.95;26.40;;;17.00;99.90;;;;;;5071881;28;20029;-58
2021/07/03 04:54:02;;;;;;;44.70;27.38;;;17.10;99.90;;;;;;5072379;28;20029;-59
2021/07/03 04:56:28;;;;;;;44.35;26.55;;;17.10;99.90;;;;;;5072015;28;20033;-58
2021/07/03 04:58:55;;;;;;;58.03;28.80;;;17.00;99.90;;;;;;5072517;28;20037;-59
2021/07/03 05:01:22;;;;;;;43.20;27.17;;;17.10;99.90;;;;;;5072324;28;20024;-57
2021/07/03 05:03:47;;;;;;;55.00;27.30;;;17.20;99.90;;;;;;5071889;28;20029;-58
2021/07/03 05:06:13;;;;;;;43.53;25.58;;;17.10;99.90;;;;;;5071907;28;20029;-59
2021/07/03 05:08:39;;;;;;;46.58;24.40;;;17.20;99.90;;;;;;5071124;28;20028;-59
2021/07/03 05:11:05;;;;;;;42.33;24.75;;;17.00;99.90;;;;;;5071426;28;20125;-58
2021/07/03 05:13:31;;;;;;;41.65;24.35;;;16.90;99.90;;;;;;5072241;28;20032;-58
2021/07/03 05:15:56;;;;;;;41.22;22.75;;;16.90;99.90;;;;;;5071277;28;20490;-58
2021/07/03 05:18:22;;;;;;;38.78;21.88;;;16.90;99.90;;;;;;5071892;28;20066;-58
2021/07/03 05:20:48;;;;;;;41.75;22.27;;;17.00;99.90;;;;;;5071043;28;20402;-59
2021/07/03 05:23:14;;;;;;;36.47;20.13;;;17.00;99.90;;;;;;5072072;28;20194;-59
2021/07/03 05:25:42;;;;;;;36.97;21.05;;;17.00;99.90;;;;;;5071134;28;20486;-58
2021/07/03 05:28:09;;;;;;;41.97;22.38;;;17.00;99.90;;;;;;5071530;28;20058;-58
2021/07/03 05:30:35;;;;;;;40.40;22.17;;;17.00;99.90;;;;;;5070162;28;20498;-58
2021/07/03 05:33:00;;;;;;;38.55;21.55;;;17.20;99.90;;;;;;5071514;28;20563;-57
2021/07/03 05:35:26;;;;;;;42.33;23.23;;;17.20;99.90;;;;;;5070850;28;20032;-57
2021/07/03 05:37:52;;;;;;;37.15;23.30;;;17.20;99.90;;;;;;5071288;28;20031;-59
2021/07/03 05:40:18;;;;;;;45.17;24.30;;;17.10;99.90;;;;;;5071163;28;20033;-59
2021/07/03 05:42:45;;;;;;;50.08;25.38;;;17.20;99.90;;;;;;5070572;28;20028;-58
2021/07/03 05:45:14;;;;;;;43.60;26.20;;;17.20;99.90;;;;;;5069408;28;20033;-58
2021/07/03 05:47:40;;;;;;;49.88;26.40;;;17.30;99.90;;;;;;5071520;28;20029;-59
2021/07/03 05:50:07;;;;;;;51.60;28.55;;;17.20;99.90;;;;;;5071076;28;20036;-59
2021/07/03 05:52:33;;;;;;;44.15;26.33;;;17.10;99.90;;;;;;5070959;28;20037;-58
2021/07/03 05:54:59;;;;;;;49.47;27.60;;;17.20;99.90;;;;;;5071871;28;20436;-58
2021/07/03 05:57:27;;;;;;;43.20;25.77;;;17.10;99.90;;;;;;5070757;28;20031;-58
2021/07/03 05:59:53;;;;;;;45.97;25.52;;;17.10;99.90;;;;;;5071620;28;20020;-57
2021/07/03 06:02:19;;;;;;;48.65;26.70;;;17.10;99.90;;;;;;5070256;28;20029;-58
2021/07/03 06:04:45;;;;;;;47.60;26.25;;;17.20;99.90;;;;;;5070825;28;20077;-58
2021/07/03 06:07:10;;;;;;;49.78;28.70;;;17.20;99.90;;;;;;5070511;28;20021;-59
2021/07/03 06:09:36;;;;;;;46.17;26.35;;;17.30;99.90;;;;;;5071270;28;20033;-57
2021/07/03 06:12:02;;;;;;;44.10;25.42;;;17.30;99.90;;;;;;5070430;28;20067;-58
2021/07/03 06:14:28;;;;;;;44.97;25.83;;;17.30;99.90;;;;;;5081508;28;20028;-58
2021/07/03 06:16:54;;;;;;;38.30;23.83;;;17.30;99.90;;;;;;5070447;28;20036;-57
2021/07/03 06:19:21;;;;;;;39.88;24.58;;;17.30;99.90;;;;;;5070783;28;20033;-57
2021/07/03 06:21:47;;;;;;;35.65;22.45;;;17.40;99.90;;;;;;5070327;28;20058;-59
2021/07/03 06:24:13;;;;;;;38.35;22.05;;;17.40;99.90;;;;;;5071067;28;20510;-57
2021/07/03 06:26:40;;;;;;;37.95;22.55;;;17.40;99.90;;;;;;5070732;28;20024;-59
2021/07/03 06:29:05;;;;;;;37.13;21.85;;;17.40;99.90;;;;;;5070877;28;20060;-58
2021/07/03 06:31:31;;;;;;;33.38;21.13;;;17.50;99.90;;;;;;5070249;28;20041;-58
2021/07/03 06:33:57;;;;;;;38.72;22.83;;;17.50;99.90;;;;;;5070802;28;20032;-58
2021/07/03 06:36:23;;;;;;;42.42;24.70;;;17.50;99.90;;;;;;5070243;28;20099;-59
2021/07/03 06:38:49;;;;;;;35.10;21.92;;;17.60;99.90;;;;;;5070886;28;20035;-57
2021/07/03 06:41:14;;;;;;;32.78;19.08;;;17.70;99.90;;;;;;5069660;28;20028;-58
2021/07/03 06:43:40;;;;;;;37.13;20.80;;;17.70;99.90;;;;;;5071059;28;20024;-58
2021/07/03 06:46:06;;;;;;;33.90;20.08;;;17.80;99.90;;;;;;5069927;28;20505;-59
2021/07/03 06:48:31;;;;;;;31.52;19.52;;;17.90;99.90;;;;;;5070538;28;20021;-58
2021/07/03 06:50:57;;;;;;;30.70;19.45;;;18.00;99.90;;;;;;5070097;28;20502;-60
2021/07/03 06:53:23;;;;;;;27.33;17.85;;;18.10;99.90;;;;;;5070957;28;20394;-57
2021/07/03 06:55:49;;;;;;;29.13;18.65;;;18.10;99.90;;;;;;5069813;28;20046;-59
2021/07/03 06:58:14;;;;;;;28.02;17.85;;;18.10;99.90;;;;;;5082045;28;20036;-58
2021/07/03 07:00:40;;;;;;;30.90;19.25;;;18.20;99.90;;;;;;5072856;28;20437;-58
2021/07/03 07:03:05;;;;;;;26.73;18.55;;;18.20;99.90;;;;;;5070707;28;20060;-58
2021/07/03 07:05:31;;;;;;;30.23;19.40;;;18.00;99.90;;;;;;5070451;28;20078;-58
2021/07/03 07:07:58;;;;;;;29.52;20.00;;;17.80;99.90;;;;;;5070083;28;20041;-58
2021/07/03 07:10:23;;;;;;;33.45;19.88;;;18.00;99.90;;;;;;5070739;28;20032;-57
2021/07/03 07:12:49;;;;;;;30.02;20.38;;;18.00;99.90;;;;;;5069444;28;20095;-58
2021/07/03 07:15:16;;;;;;;36.67;20.65;;;18.10;99.90;;;;;;5070494;28;20041;-58
2021/07/03 07:17:42;;;;;;;29.67;19.63;;;18.20;99.90;;;;;;5072484;28;20028;-59
2021/07/03 07:20:08;;;;;;;32.17;19.65;;;18.20;99.90;;;;;;5074631;28;20165;-57
2021/07/03 07:22:34;;;;;;;29.75;18.92;;;18.20;99.90;;;;;;5073536;28;20035;-59
2021/07/03 07:25:00;;;;;;;31.55;18.27;;;18.30;99.90;;;;;;5073176;28;20032;-58
2021/07/03 07:27:25;;;;;;;30.60;19.52;;;18.50;99.90;;;;;;5073502;28;20032;-59
2021/07/03 07:29:51;;;;;;;31.25;18.52;;;18.50;99.90;;;;;;5074151;28;20060;-58
2021/07/03 07:32:17;;;;;;;38.88;19.98;;;18.70;99.90;;;;;;5073515;28;20029;-59
2021/07/03 07:34:43;;;;;;;32.85;19.73;;;18.70;99.90;;;;;;5073542;28;20048;-58
2021/07/03 07:37:09;;;;;;;33.42;18.80;;;18.80;99.90;;;;;;5073281;28;20119;-59
2021/07/03 07:39:35;;;;;;;35.65;21.65;;;18.90;99.90;;;;;;5073733;28;20029;-58
2021/07/03 07:42:01;;;;;;;36.92;21.35;;;18.80;99.90;;;;;;5080922;28;20032;-59
2021/07/03 07:44:27;;;;;;;35.97;22.60;;;18.80;99.90;;;;;;5080284;28;20062;-58
2021/07/03 07:46:53;;;;;;;43.30;23.42;;;18.90;99.90;;;;;;5073094;28;20587;-58
2021/07/03 07:49:18;;;;;;;42.17;23.85;;;19.00;99.90;;;;;;5073800;28;20028;-56
2021/07/03 07:51:44;;;;;;;41.35;25.23;;;19.10;99.90;;;;;;5072685;28;20120;-58
2021/07/03 07:54:10;;;;;;;44.35;25.17;;;19.10;99.90;;;;;;5072967;28;20041;-59
2021/07/03 07:56:35;;;;;;;45.88;25.38;;;19.10;99.90;;;;;;5073021;28;20033;-58
2021/07/03 07:59:01;;;;;;;44.92;26.65;;;19.10;99.90;;;;;;5073546;28;20100;-59
2021/07/03 08:01:27;;;;;;;47.70;28.33;;;19.10;99.90;;;;;;5072680;28;20028;-59
2021/07/03 08:03:52;;;;;;;49.63;28.95;;;19.20;99.90;;;;;;5071820;28;20034;-58
2021/07/03 08:06:18;;;;;;;49.08;27.95;;;19.20;99.90;;;;;;5072754;28;20029;-58
2021/07/03 08:08:44;;;;;;;46.25;28.10;;;19.20;99.90;;;;;;5073670;28;20086;-58
2021/07/03 08:11:09;;;;;;;54.33;29.65;;;19.30;99.90;;;;;;5071104;28;20124;-58
2021/07/03 08:13:35;;;;;;;47.22;28.65;;;19.30;99.90;;;;;;5073223;28;20111;-57
2021/07/03 08:16:01;;;;;;;50.67;31.20;;;19.40;99.90;;;;;;5072816;28;20036;-58
2021/07/03 08:18:27;;;;;;;57.00;30.95;;;19.50;99.90;;;;;;5072125;28;20123;-58
2021/07/03 08:20:52;;;;;;;51.80;29.67;;;19.50;99.90;;;;;;5073483;28;20040;-58
2021/07/03 08:23:18;;;;;;;53.15;29.13;;;19.60;99.90;;;;;;5074128;28;20032;-57
2021/07/03 08:25:44;;;;;;;49.75;29.83;;;19.60;99.90;;;;;;5073027;28;20025;-59
2021/07/03 08:28:10;;;;;;;60.20;31.30;;;19.60;99.90;;;;;;5071567;28;20052;-58
2021/07/03 08:30:36;;;;;;;61.60;31.75;;;19.60;99.90;;;;;;5073137;28;20039;-57
2021/07/03 08:33:02;;;;;;;54.42;31.40;;;19.60;99.90;;;;;;5075347;28;20024;-59
2021/07/03 08:35:28;;;;;;;57.20;33.00;;;19.50;99.90;;;;;;5083399;28;20044;-59
2021/07/03 08:37:54;;;;;;;60.05;32.17;;;19.50;99.90;;;;;;5072039;28;20037;-59
2021/07/03 08:40:20;;;;;;;52.47;32.33;;;19.50;99.90;;;;;;5073093;28;20071;-58
2021/07/03 08:42:47;;;;;;;56.25;32.72;;;19.50;99.90;;;;;;5071889;28;20032;-58
2021/07/03 08:45:13;;;;;;;56.38;34.88;;;19.60;99.90;;;;;;5072605;28;20024;-57
2021/07/03 08:47:44;;;;;;;65.07;35.58;;;19.50;99.90;;;;;;5072028;28;20021;-59
2021/07/03 08:50:12;;;;;;;68.25;37.70;;;19.50;99.90;;;;;;5072279;28;20549;-59
2021/07/03 08:52:38;;;;;;;67.13;35.22;;;19.60;99.90;;;;;;5071873;28;20031;-59
2021/07/03 08:55:19;;;;;;;66.32;35.35;;;19.70;99.90;;;;;;5072590;28;20040;-58
2021/07/03 08:57:46;;;;;;;64.03;37.92;;;19.70;99.90;;;;;;5072162;28;20032;-59
2021/07/03 09:00:13;;;;;;;66.00;35.90;;;19.70;99.90;;;;;;5072490;28;20028;-58
2021/07/03 09:02:43;;;;;;;63.95;36.47;;;19.70;99.90;;;;;;5071602;28;20020;-58
2021/07/03 09:05:24;;;;;;;76.43;37.88;;;19.60;99.90;;;;;;5072446;28;20527;-57
2021/07/03 09:07:51;;;;;;;61.53;37.15;;;19.60;99.90;;;;;;5071559;28;20103;-59
2021/07/03 09:10:23;;;;;;;59.53;37.08;;;19.70;99.90;;;;;;5070980;28;20028;-58
2021/07/03 09:12:50;;;;;;;60.95;36.50;;;19.70;99.90;;;;;;5071093;28;20039;-58
2021/07/03 09:15:20;;;;;;;57.50;35.67;;;19.70;99.90;;;;;;5072327;28;20367;-58
2021/07/03 09:17:53;;;;;;;72.03;39.30;;;19.70;99.90;;;;;;5074893;28;20024;-58
2021/07/03 09:20:23;;;;;;;77.57;39.20;;;19.60;99.90;;;;;;5081535;28;20024;-57
2021/07/03 09:22:48;;;;;;;65.93;39.92;;;19.60;99.90;;;;;;5071033;28;20108;-58
2021/07/03 09:25:19;;;;;;;70.43;39.88;;;19.60;99.90;;;;;;5074401;28;20383;-59
2021/07/03 09:27:45;;;;;;;82.25;39.80;;;19.60;99.90;;;;;;5073302;28;20120;-57
2021/07/03 09:30:12;;;;;;;71.10;40.25;;;19.60;99.90;;;;;;5071428;28;20020;-58
2021/07/03 09:32:37;;;;;;;67.35;40.92;;;19.60;99.90;;;;;;5070862;28;20063;-58
2021/07/03 09:35:08;;;;;;;73.05;41.35;;;19.60;99.90;;;;;;5071501;28;20060;-57
2021/07/03 09:37:35;;;;;;;70.70;39.80;;;19.60;99.90;;;;;;5070931;28;20474;-58
2021/07/03 09:40:08;;;;;;;75.22;41.83;;;19.70;99.90;;;;;;5069103;28;20043;-59
2021/07/03 09:42:38;;;;;;;67.88;41.10;;;19.60;99.90;;;;;;5070997;28;20029;-59
2021/07/03 09:45:06;;;;;;;71.35;40.63;;;19.60;99.90;;;;;;5071312;28;20095;-58
2021/07/03 09:47:32;;;;;;;73.25;41.83;;;19.60;99.90;;;;;;5070581;28;20555;-59
2021/07/03 09:50:08;;;;;;;66.47;41.90;;;19.60;99.90;;;;;;5071155;28;20028;-59
2021/07/03 09:52:35;;;;;;;72.45;41.55;;;19.60;99.90;;;;;;5070598;28;20031;-59
2021/07/03 09:55:06;;;;;;;76.65;41.97;;;19.60;99.90;;;;;;5071599;28;20039;-58
2021/07/03 09:57:35;;;;;;;68.78;41.15;;;19.60;99.90;;;;;;5070561;28;20020;-58
2021/07/03 10:00:09;;;;;;;78.35;43.42;;;19.60;99.90;;;;;;5070099;28;20391;-57
2021/07/03 10:02:35;;;;;;;64.78;39.28;;;19.60;99.90;;;;;;5068995;28;20032;-60
2021/07/03 10:05:01;;;;;;;79.82;44.17;;;19.70;99.90;;;;;;5070830;28;20035;-58
2021/07/03 10:07:36;;;;;;;66.82;41.28;;;19.70;99.90;;;;;;5070276;28;20037;-58
2021/07/03 10:10:24;;;;;;;75.38;42.53;;;19.70;99.90;;;;;;5071201;28;20052;-59
2021/07/03 10:12:57;;;;;;;68.13;40.92;;;19.80;99.90;;;;;;5068491;28;20403;-58
2021/07/03 10:15:31;;;;;;;79.47;43.67;;;19.80;99.90;;;;;;5071351;28;20032;-60
2021/07/03 10:18:12;;;;;;;82.90;43.73;;;19.90;99.90;;;;;;5069634;28;20436;-58
2021/07/03 10:20:38;;;;;;;89.18;43.13;;;19.90;99.90;;;;;;5070979;28;20385;-58
2021/07/03 10:23:05;;;;;;;78.82;41.75;;;19.90;99.90;;;;;;5069933;28;20495;-59
2021/07/03 10:25:40;;;;;;;74.35;41.17;;;19.90;99.90;;;;;;5071081;28;20085;-58
2021/07/03 10:28:09;;;;;;;68.50;40.40;;;19.90;99.90;;;;;;5069818;28;20057;-60
2021/07/03 10:30:37;;;;;;;79.30;41.92;;;19.80;99.90;;;;;;5070977;28;20028;-60
2021/07/03 10:33:27;;;;;;;73.65;41.15;;;19.80;99.90;;;;;;5069740;28;20055;-61
2021/07/03 10:35:56;;;;;;;83.45;40.38;;;19.80;99.90;;;;;;5070179;28;20044;-59
2021/07/03 10:38:38;;;;;;;76.22;39.15;;;19.70;99.90;;;;;;5069993;28;20024;-59
2021/07/03 10:41:10;;;;;;;64.57;35.35;;;19.70;99.90;;;;;;5083355;28;20037;-58
2021/07/03 10:43:46;;;;;;;66.65;35.85;;;19.70;99.90;;;;;;5070097;28;20017;-59
2021/07/03 10:46:24;;;;;;;67.10;37.00;;;19.70;99.90;;;;;;5070878;28;20052;-59
2021/07/03 10:48:57;;;;;;;64.80;36.22;;;19.70;99.90;;;;;;5077282;28;20020;-59
2021/07/03 10:51:54;;;;;;;65.72;36.17;;;19.70;99.90;;;;;;5079187;28;20036;-58
2021/07/03 10:54:27;;;;;;;67.32;36.67;;;19.60;99.90;;;;;;5069721;28;20044;-58
2021/07/03 10:57:03;;;;;;;74.97;38.30;;;19.60;99.90;;;;;;5074511;28;20033;-59
2021/07/03 10:59:36;;;;;;;71.38;35.05;;;19.60;99.90;;;;;;5073844;28;20039;-58
2021/07/03 11:02:06;;;;;;;79.45;35.55;;;19.50;99.90;;;;;;5074516;28;20021;-59
2021/07/03 11:04:45;;;;;;;63.28;34.58;;;19.60;99.90;;;;;;5080445;28;20036;-57
2021/07/03 11:07:12;;;;;;;66.32;34.58;;;19.70;99.90;;;;;;5079528;28;20072;-58
2021/07/03 11:09:38;;;;;;;71.35;32.92;;;19.60;99.90;;;;;;5073697;28;20025;-57
2021/07/03 11:12:44;;;;;;;62.30;33.50;;;19.70;99.90;;;;;;5074067;28;20048;-58
2021/07/03 11:15:12;;;;;;;69.47;34.05;;;19.80;99.90;;;;;;5062446;28;20049;-58
2021/07/03 11:17:37;;;;;;;75.00;34.80;;;19.80;99.90;;;;;;5073541;28;20032;-59
2021/07/03 11:20:04;;;;;;;68.65;33.83;;;19.90;99.90;;;;;;5074103;28;20090;-59
2021/07/03 11:22:31;;;;;;;72.90;35.42;;;20.20;99.90;;;;;;5073054;28;20048;-58
2021/07/03 11:24:58;;;;;;;67.47;32.63;;;20.50;99.90;;;;;;5074114;28;20562;-58
2021/07/03 11:27:33;;;;;;;66.35;33.25;;;20.80;99.90;;;;;;5073341;28;20281;-58
2021/07/03 11:30:01;;;;;;;60.35;33.83;;;21.00;99.90;;;;;;5080691;28;20149;-58
2021/07/03 11:32:27;;;;;;;62.97;34.03;;;21.10;99.90;;;;;;5080542;28;20049;-58
2021/07/03 11:34:56;;;;;;;61.72;30.45;;;21.00;99.90;;;;;;5088083;28;20474;-59
2021/07/03 11:37:27;;;;;;;65.15;31.15;;;21.00;99.90;;;;;;5074159;28;20482;-58
2021/07/03 11:39:53;;;;;;;59.08;32.25;;;20.90;99.90;;;;;;5073523;28;20024;-59
2021/07/03 11:42:30;;;;;;;56.78;32.22;;;20.90;99.90;;;;;;5073932;28;20387;-58
2021/07/03 11:44:56;;;;;;;50.90;30.98;;;20.80;99.90;;;;;;5073502;28;20069;-59
2021/07/03 11:48:10;;;;;;;54.08;31.98;;;20.80;99.90;;;;;;5073919;28;20032;-59
2021/07/03 11:50:37;;;;;;;50.70;31.13;;;20.80;99.90;;;;;;4995750;28;20037;-58
2021/07/03 11:53:07;;;;;;;51.03;28.88;;;21.00;99.90;;;;;;5066243;28;20045;-59
2021/07/03 11:55:36;;;;;;;46.08;27.88;;;21.40;99.90;;;;;;5073439;28;20568;-58
2021/07/03 11:58:03;;;;;;;45.45;26.17;;;21.60;99.90;;;;;;5072859;28;20032;-57
2021/07/03 12:00:34;;;;;;;34.20;23.02;;;21.90;99.90;;;;;;5086210;28;20039;-57
2021/07/03 12:03:02;;;;;;;29.83;19.50;;;22.10;99.90;;;;;;5080087;28;20386;-58
2021/07/03 12:05:37;;;;;;;29.15;15.98;;;22.40;99.90;;;;;;5091281;28;20039;-58
2021/07/03 12:08:08;;;;;;;22.95;15.90;;;22.40;99.90;;;;;;5072761;28;20102;-58
2021/07/03 12:10:44;;;;;;;26.58;15.88;;;22.20;99.90;;;;;;5073326;28;20089;-57
2021/07/03 12:13:22;;;;;;;25.88;14.77;;;22.10;99.90;;;;;;5072480;28;20051;-59
2021/07/03 12:15:54;;;;;;;24.80;15.68;;;22.00;99.90;;;;;;5073137;28;20082;-58
2021/07/03 12:18:28;;;;;;;26.27;15.18;;;22.00;99.90;;;;;;5072258;28;20513;-58
2021/07/03 12:21:34;;;;;;;26.60;15.35;;;22.10;99.90;;;;;;5072990;28;20528;-58
2021/07/03 12:24:04;;;;;;;24.85;15.20;;;22.10;99.90;;;;;;5075328;28;20525;-58
2021/07/03 12:26:37;;;;;;;23.83;14.95;;;22.10;99.90;;;;;;5073205;28;20029;-56
2021/07/03 12:29:23;;;;;;;19.30;13.57;;;22.10;99.90;;;;;;5072412;28;20056;-58
2021/07/03 12:31:49;;;;;;;20.45;13.10;;;22.20;99.90;;;;;;5073157;28;20036;-57